Aktualne dane pomiarowe

Uwaga, wersja testowa! Automatyczne pobieranie danych za pomocą narzędzi lub skryptów to umożliwiających jest zabronione.

Dane meteo z obszaru Polski uzyskane na podstawie depesz SYNOP pobieranych co godzinę z NWS. Najedź myszką na symbol przedstawiony w tabeli, aby uzyskać informacje co do jego znaczenia. Prosimy pamiętać, że to testowa wersja strony, która jeszcze nie jest ukończona. Stworzono również jest krótki FAQ dotyczący korzystania z tej podstrony Anomalie temperatury w chwili obecnej odniesione są do okresu referencyjnego 1951-2016. Okres ten będzie później zmieniony na 1981-2010. Kliknij ikonę aby pobrać plik CSV. Kliknij ikonę aby wygenerować mapę synoptyczną dla danego terminu.

Wybierz Datę:    

        

Zamość (12595)

Dane terminowe dla wybranej stacji. Kliknij datę, aby otrzymać dane z tego terminu dla wszystkich stacji.

TemperaturaZachmurzenieWiatrCiśnienieOpadyPogoda
 Data t td wb tx tn tg rh  Nt Nl Cl Cm Ch ws wd g1 g2 wx mslp ppp ch 24h 12h t ww ww w1 w2  
2019-07-12 23:00:00 12.7 8.0 9.8--- 7320.0--0---01010.3 983.8 -0.3---------
2019-07-12 22:00:00 14.2 8.8 10.9--- 7020.0--1wx---1010.3 983.9 -0.1---------
2019-07-12 21:00:00 13.5 9.5 10.9--- 7720.0--2wx--21010.4 984.0 0.4---------
2019-07-12 20:00:00 14.4 9.8 11.5--- 7420.0--3wx--31010.5 984.1 0.6---------
2019-07-12 19:00:00 15.4 9.5 11.8--- 6820.0--2wx--21010.3 984.0 0.4---------
2019-07-12 18:00:00 19.3 8.3 13.0 23.1 17.2- 4920.0wxwxwxwx1wx--11009.5 983.6 -0.3- 0.012------
2019-07-12 17:00:00 22.0 7.0 13.6--- 3820.0wxwxwxwx3wx--31009.1 983.5 -0.8---------
2019-07-12 16:00:00 21.4 7.2 13.4--- 4020.0wxwxwxwx2wx--21009.3 983.6 -0.9---------
2019-07-12 15:00:00 22.1 7.5 13.9--- 3920.0wxwxwxwx3wx--31009.5 983.9 -0.7---------
2019-07-12 14:00:00 21.8 7.2 13.6--- 3920.0wxwxwxwx3wx--31010.0 984.3 -0.5---------
2019-07-12 13:00:00 21.9 6.5 13.4--- 3720.0wxwxwx3wx--31010.2 984.5 -0.6---------
2019-07-12 12:00:00 21.3 6.8 13.2--- 3920.0wxwxwx4wx-841010.3 984.6 -0.5- 0.06------
2019-07-12 11:00:00 22.6 6.8 13.8--- 3620.0wxwxwx4wx-841010.4 984.8 -0.4---------
2019-07-12 10:00:00 21.4 6.9 13.3--- 3920.0wxwxwxwx4wx--41010.8 985.1 -0.1---------
2019-07-12 09:00:00 20.7 8.3 13.6--- 4520.0wxwxwxwx6wx---1010.9 985.1 -0.3---------
2019-07-12 08:00:00 18.7 7.8 12.5--- 4920.0wxwxwx5wx--51011.2 985.2 -0.1---------
2019-07-12 07:00:00 19.2 9.1 13.3--- 5220.0wxwxwx5wx--51011.1 985.2 -0.1---------
2019-07-12 06:00:00 17.2 9.1 12.4 17.4 9.8 7 5920.0wxwxwx5wx--51011.5 985.4 0.1- 0.012wx-----
2019-07-12 05:00:00 15.9 9.3 11.9--- 6520.0--4wx---1011.5 985.3 0.1---------
2019-07-12 04:00:00 11.9 9.3 10.2--- 8420.0--2wx--21011.9 985.3 0.0---------
2019-07-12 03:00:00 11.1 8.7 9.5--- 8520.0--1wx--11012.0 985.3 0.0---------
2019-07-12 02:00:00 10.1 8.4 8.9--- 8920.0--2wx--21012.0 985.2 -0.4---------
2019-07-12 01:00:00 10.5 8.9 9.4--- 9020.0--1wx--11012.1 985.3 -0.4---------
2019-07-12 00:00:00 10.2 8.8 9.2--- 9120.0--1wx--11012.1 985.3 -0.3- 0.06------
2019-07-11 23:00:00 10.7 9.3 9.7--- 9120.0--2wx--21012.3 985.6 0.3---------
2019-07-11 22:00:00 10.5 8.9 9.4--- 9020.0--3wx--31012.5 985.7 0.5---------
2019-07-11 21:00:00 11.2 9.3 9.9--- 8820.0--3wx--31012.3 985.6 0.9---------
2019-07-11 20:00:00 13.2 9.8 11.0--- 8020.0--2wx--21011.8 985.3 0.7---------
2019-07-11 19:00:00 15.4 11.0 12.6--- 7520.0--2wx--21011.5 985.2 0.8---------
2019-07-11 18:00:00 17.4 8.8 12.3 19.8 13.6- 5720.0wxwxwxwx5wx-1151010.8 984.7 0.4--12wx-w1--
2019-07-11 17:00:00 18.3 9.9 13.2--- 5820.0wxwxwxwx4wx--41010.6 984.6 0.4---------
2019-07-11 16:00:00 17.9 8.5 12.4--- 5420.0wxwxwxwx5wx--51010.4 984.4 0.4---------
2019-07-11 15:00:00 18.7 9.7 13.3--- 5620.0wxwxwxwx5wx-1151010.3 984.3 0.2---wx-w1--
2019-07-11 14:00:00 17.0 10.4 12.9--- 6520.0wxwxwxwx4wx--41010.3 984.2 0.1---wx---
2019-07-11 13:00:00 17.2 9.6 12.6--- 6120.0wxwxwx5wx-1151010.1 984.0 -0.3---wx---
2019-07-11 12:00:00 17.6 9.5 12.7--- 5920.0wxwxwxwx5wx--51010.2 984.1 -0.2- 0.06------
2019-07-11 11:00:00 16.8 9.7 12.5--- 6320.0wxwxwx5wx--51010.2 984.1 0.0---------
2019-07-11 10:00:00 16.2 9.1 11.9--- 6320.0wxwxwx5wx--51010.5 984.3 0.1---------
2019-07-11 09:00:00 15.7 9.6 11.9--- 6720.0wxwxwx5wx--51010.5 984.3 0.1---------
2019-07-11 08:00:00 15.6 9.9 12.1--- 6920.0wxwxwxwx4wx--41010.3 984.1 -0.1---------
2019-07-11 07:00:00 14.5 10.3 11.8--- 7620.0wxwxwxwx5wx---1010.5 984.2 0.0---------
2019-07-11 06:00:00 13.9 11.1 12.0 15.3 10.3 10 8320.0wxwxwx4wx--41010.6 984.2 0.0 0.4 0.412wx-----
2019-07-11 05:00:00 12.5 11.4 11.7--- 9320.0--4wx--41010.7 984.2 0.1---------
2019-07-11 04:00:00 11.3 10.4 10.6--- 9414.0--3wx--31010.8 984.2 -0.1---------
2019-07-11 03:00:00 11.2 10.4 10.6--- 9515.0--4wx--41010.9 984.2 -0.2---------
2019-07-11 02:00:00 11.0 10.4 10.5--- 9620.0--3wx--31010.8 984.1 -0.4---------
2019-07-11 01:00:00 10.7 10.1 10.2--- 9620.0--4wx--41011.0 984.3 -0.3---------
2019-07-11 00:00:00 10.9 10.0 10.2--- 9420.0--3wx-1231011.1 984.4 -0.3- 0.46------
1.1 ms

 

Print Friendly, PDF & Email